Startpagina
METAR-TAF:

METAR-TAF

Vliegvelden :

Luchthaven Seychellen

Victoria, Mahé, Seychellen

breedte: 04-40S, lengte: 055-31E, hoogte: 3 m

Actueel weer

Dit bericht is 45 minuten geleden gemaakt, om 11:00 UTC
Wind 5 kt uit het noordwesten, variërend tussen het westen en het oostnoordoosten
Temperatuur 31°C
Vochtigheid 59%
Druk 1010 hPa
Zicht 10 km of meer
Weinig wolken op 3000 ft

METAR: FSIA 191100Z 32005KT 270V070 9999 FEW030 31/22 Q1010 NOSIG

Tijdstip: 15:45 (11:45 UTC)

Verwachting

Dit bericht is 44 minuten geleden gemaakt, om 11:01 UTC
Verwachting geldig van 19 om 12 UTC tot 20 om 12 UTC
Wind 7 kt uit het zuidwesten
Zicht 10 km of meer
Verspreide wolken op 2400 ft

TAF: FSIA 191101Z 1912/2012 22007KT 9999 SCT024

Waarnemingen en weersverwachtingen van meer dan 4000 vliegvelden (METAR en TAF).

De beschikbare stations zijn de gele en rode punten op de kaart.

Ga met uw muis naar het station om de naam te zien.

Klik dan om waarnemingen en weersverwachtingen te zien.

kaart wijzigen: klik op de groene knoppen met een zwart kruis om in te zoomen, op de groene knop met een streepje om uit te zoomen of op de groene pijlen voor aangrenzende kaarten.


METAR-TAF: